sensor_id;sensor_type;location;lat;lon;timestamp;pressure;altitude;pressure_sealevel;temperature;humidity
46412;BME280;32113;42.012;24.870;2023-02-03T00:00:47;99219.31;;;8.27;42.78
46412;BME280;32113;42.012;24.870;2023-02-03T00:03:12;99217.59;;;8.33;42.93
46412;BME280;32113;42.012;24.870;2023-02-03T00:05:37;99205.66;;;8.21;42.41
46412;BME280;32113;42.012;24.870;2023-02-03T00:08:03;99219.28;;;8.13;42.70
46412;BME280;32113;42.012;24.870;2023-02-03T00:10:29;99226.06;;;8.10;42.51
46412;BME280;32113;42.012;24.870;2023-02-03T00:12:54;99223.50;;;7.97;42.51
46412;BME280;32113;42.012;24.870;2023-02-03T00:15:21;99229.44;;;7.85;42.04
46412;BME280;32113;42.012;24.870;2023-02-03T00:17:47;99214.94;;;7.86;42.31
46412;BME280;32113;42.012;24.870;2023-02-03T00:20:12;99214.94;;;7.84;42.49
46412;BME280;32113;42.012;24.870;2023-02-03T00:22:37;99209.78;;;7.72;42.48
46412;BME280;32113;42.012;24.870;2023-02-03T00:25:03;99227.66;;;7.76;42.92
46412;BME280;32113;42.012;24.870;2023-02-03T00:27:28;99217.47;;;7.86;42.75
46412;BME280;32113;42.012;24.870;2023-02-03T00:29:54;99231.16;;;7.94;42.53
46412;BME280;32113;42.012;24.870;2023-02-03T00:32:19;99222.59;;;7.81;42.48
46412;BME280;32113;42.012;24.870;2023-02-03T00:34:44;99222.56;;;7.76;42.72
46412;BME280;32113;42.012;24.870;2023-02-03T00:37:11;99214.88;;;7.66;42.22
46412;BME280;32113;42.012;24.870;2023-02-03T00:39:36;99222.44;;;7.44;41.92
46412;BME280;32113;42.012;24.870;2023-02-03T00:42:02;99219.91;;;7.47;43.02
46412;BME280;32113;42.012;24.870;2023-02-03T00:44:27;99219.09;;;7.56;42.47
46412;BME280;32113;42.012;24.870;2023-02-03T00:46:52;99226.78;;;7.63;42.50
46412;BME280;32113;42.012;24.870;2023-02-03T00:49:18;99228.50;;;7.68;41.86
46412;BME280;32113;42.012;24.870;2023-02-03T00:51:43;99220.00;;;7.78;42.54
46412;BME280;32113;42.012;24.870;2023-02-03T00:54:08;99205.59;;;7.94;42.33
46412;BME280;32113;42.012;24.870;2023-02-03T00:56:34;99208.16;;;8.00;42.26
46412;BME280;32113;42.012;24.870;2023-02-03T00:58:59;99218.41;;;8.07;41.76
46412;BME280;32113;42.012;24.870;2023-02-03T01:01:25;99229.44;;;7.98;41.54
46412;BME280;32113;42.012;24.870;2023-02-03T01:03:52;99238.84;;;7.97;41.70
46412;BME280;32113;42.012;24.870;2023-02-03T01:06:18;99229.44;;;7.85;40.73
46412;BME280;32113;42.012;24.870;2023-02-03T01:08:44;99221.72;;;7.79;41.82
46412;BME280;32113;42.012;24.870;2023-02-03T01:11:11;99224.25;;;7.67;41.14
46412;BME280;32113;42.012;24.870;2023-02-03T01:13:37;99224.97;;;7.42;41.66
46412;BME280;32113;42.012;24.870;2023-02-03T01:16:05;99213.09;;;7.49;41.74
46412;BME280;32113;42.012;24.870;2023-02-03T01:18:31;99216.53;;;7.60;41.65
46412;BME280;32113;42.012;24.870;2023-02-03T01:20:56;99225.03;;;7.59;41.95
46412;BME280;32113;42.012;24.870;2023-02-03T01:23:21;99219.09;;;7.63;41.49
46412;BME280;32113;42.012;24.870;2023-02-03T01:25:46;99215.72;;;7.72;41.62
46412;BME280;32113;42.012;24.870;2023-02-03T01:28:12;99224.31;;;7.88;41.78
46412;BME280;32113;42.012;24.870;2023-02-03T01:30:37;99216.69;;;7.99;42.00
46412;BME280;32113;42.012;24.870;2023-02-03T01:33:03;99217.56;;;8.01;41.90
46412;BME280;32113;42.012;24.870;2023-02-03T01:35:28;99220.97;;;8.10;41.26
46412;BME280;32113;42.012;24.870;2023-02-03T01:37:53;99220.97;;;8.13;41.64
46412;BME280;32113;42.012;24.870;2023-02-03T01:40:18;99217.59;;;8.23;41.92
46412;BME280;32113;42.012;24.870;2023-02-03T01:42:44;99221.00;;;8.16;41.24
46412;BME280;32113;42.012;24.870;2023-02-03T01:45:09;99224.38;;;8.02;41.48
46412;BME280;32113;42.012;24.870;2023-02-03T01:47:42;99229.44;;;7.90;42.34
46412;BME280;32113;42.012;24.870;2023-02-03T01:52:36;99236.25;;;7.88;41.92
46412;BME280;32113;42.012;24.870;2023-02-03T01:55:04;99225.16;;;7.83;42.67
46412;BME280;32113;42.012;24.870;2023-02-03T01:57:34;99237.00;;;7.67;42.37
46412;BME280;32113;42.012;24.870;2023-02-03T02:00:00;99253.13;;;7.58;42.99
46412;BME280;32113;42.012;24.870;2023-02-03T02:02:26;99252.28;;;7.56;43.64
46412;BME280;32113;42.012;24.870;2023-02-03T02:05:13;99261.50;;;7.30;43.71
46412;BME280;32113;42.012;24.870;2023-02-03T02:07:40;99257.22;;;7.28;44.72
46412;BME280;32113;42.012;24.870;2023-02-03T02:10:06;99263.03;;;7.11;45.22
46412;BME280;32113;42.012;24.870;2023-02-03T02:12:31;99270.75;;;7.16;45.46
46412;BME280;32113;42.012;24.870;2023-02-03T02:14:57;99275.06;;;7.25;45.51
46412;BME280;32113;42.012;24.870;2023-02-03T02:17:47;99285.19;;;7.10;45.72
46412;BME280;32113;42.012;24.870;2023-02-03T02:22:51;99290.94;;;6.88;46.87
46412;BME280;32113;42.012;24.870;2023-02-03T02:30:39;99293.28;;;6.63;47.62
46412;BME280;32113;42.012;24.870;2023-02-03T02:43:20;99278.88;;;6.71;46.99
46412;BME280;32113;42.012;24.870;2023-02-03T02:45:48;99287.38;;;6.67;46.73
46412;BME280;32113;42.012;24.870;2023-02-03T02:50:46;99300.94;;;6.63;46.91
46412;BME280;32113;42.012;24.870;2023-02-03T02:53:13;99314.38;;;6.49;46.80
46412;BME280;32113;42.012;24.870;2023-02-03T02:55:39;99319.44;;;6.46;47.52
46412;BME280;32113;42.012;24.870;2023-02-03T02:58:06;99315.13;;;6.40;46.86
46412;BME280;32113;42.012;24.870;2023-02-03T03:00:33;99326.16;;;6.38;46.08
46412;BME280;32113;42.012;24.870;2023-02-03T03:03:18;99334.69;;;6.40;46.38
46412;BME280;32113;42.012;24.870;2023-02-03T03:06:01;99315.03;;;6.29;46.05
46412;BME280;32113;42.012;24.870;2023-02-03T03:08:38;99318.34;;;6.22;46.53
46412;BME280;32113;42.012;24.870;2023-02-03T03:11:05;99309.94;;;6.33;46.38
46412;BME280;32113;42.012;24.870;2023-02-03T03:13:33;99312.63;;;6.43;46.07
46412;BME280;32113;42.012;24.870;2023-02-03T03:16:01;99311.00;;;6.52;45.72
46412;BME280;32113;42.012;24.870;2023-02-03T03:18:39;99325.53;;;6.59;45.76
46412;BME280;32113;42.012;24.870;2023-02-03T03:21:07;99329.94;;;6.74;44.71
46412;BME280;32113;42.012;24.870;2023-02-03T03:23:37;99320.50;;;6.65;44.67
46412;BME280;32113;42.012;24.870;2023-02-03T03:28:48;99328.81;;;6.46;43.95
46412;BME280;32113;42.012;24.870;2023-02-03T03:31:15;99318.53;;;6.41;44.57
46412;BME280;32113;42.012;24.870;2023-02-03T03:33:40;99337.13;;;6.30;44.87
46412;BME280;32113;42.012;24.870;2023-02-03T03:36:28;99331.25;;;6.39;45.33
46412;BME280;32113;42.012;24.870;2023-02-03T03:38:57;99339.06;;;6.52;44.87
46412;BME280;32113;42.012;24.870;2023-02-03T03:41:26;99344.06;;;6.42;44.99
46412;BME280;32113;42.012;24.870;2023-02-03T03:43:55;99328.69;;;6.35;45.84
46412;BME280;32113;42.012;24.870;2023-02-03T03:46:24;99344.72;;;6.27;45.69
46412;BME280;32113;42.012;24.870;2023-02-03T03:49:12;99335.25;;;6.17;46.18
46412;BME280;32113;42.012;24.870;2023-02-03T03:51:39;99348.00;;;6.17;45.97
46412;BME280;32113;42.012;24.870;2023-02-03T03:54:06;99348.91;;;6.22;45.88
46412;BME280;32113;42.012;24.870;2023-02-03T03:56:37;99350.56;;;6.18;45.22
46412;BME280;32113;42.012;24.870;2023-02-03T03:59:05;99339.66;;;6.30;45.39
46412;BME280;32113;42.012;24.870;2023-02-03T04:01:32;99344.69;;;6.26;45.42
46412;BME280;32113;42.012;24.870;2023-02-03T04:03:59;99331.63;;;6.01;45.56
46412;BME280;32113;42.012;24.870;2023-02-03T04:06:26;99338.75;;;6.25;45.95
46412;BME280;32113;42.012;24.870;2023-02-03T04:08:51;99350.78;;;6.37;45.65
46412;BME280;32113;42.012;24.870;2023-02-03T04:11:16;99354.09;;;6.30;45.13
46412;BME280;32113;42.012;24.870;2023-02-03T04:14:01;99359.25;;;6.35;44.66
46412;BME280;32113;42.012;24.870;2023-02-03T04:16:27;99361.00;;;6.37;45.00
46412;BME280;32113;42.012;24.870;2023-02-03T04:18:52;99369.56;;;6.44;45.36
46412;BME280;32113;42.012;24.870;2023-02-03T04:21:17;99364.44;;;6.42;44.93
46412;BME280;32113;42.012;24.870;2023-02-03T04:23:42;99375.59;;;6.51;45.28
46412;BME280;32113;42.012;24.870;2023-02-03T04:26:08;99372.16;;;6.49;44.81
46412;BME280;32113;42.012;24.870;2023-02-03T04:28:33;99362.84;;;6.51;44.71
46412;BME280;32113;42.012;24.870;2023-02-03T04:31:01;99372.16;;;6.49;44.57
46412;BME280;32113;42.012;24.870;2023-02-03T04:33:26;99365.38;;;6.49;45.18
46412;BME280;32113;42.012;24.870;2023-02-03T04:35:52;99368.81;;;6.54;45.54
46412;BME280;32113;42.012;24.870;2023-02-03T04:38:17;99353.44;;;6.45;45.97
46412;BME280;32113;42.012;24.870;2023-02-03T04:40:42;99358.41;;;6.36;45.62
46412;BME280;32113;42.012;24.870;2023-02-03T04:43:09;99356.03;;;6.48;46.06
46412;BME280;32113;42.012;24.870;2023-02-03T04:45:35;99359.44;;;6.52;45.72
46412;BME280;32113;42.012;24.870;2023-02-03T04:48:00;99359.56;;;6.63;45.26
46412;BME280;32113;42.012;24.870;2023-02-03T04:50:25;99348.47;;;6.57;45.59
46412;BME280;32113;42.012;24.870;2023-02-03T04:52:50;99341.56;;;6.49;45.92
46412;BME280;32113;42.012;24.870;2023-02-03T04:55:16;99346.66;;;6.46;46.27
46412;BME280;32113;42.012;24.870;2023-02-03T04:57:41;99350.91;;;6.48;45.21
46412;BME280;32113;42.012;24.870;2023-02-03T05:00:06;99367.03;;;6.47;45.68
46412;BME280;32113;42.012;24.870;2023-02-03T05:02:32;99372.06;;;6.41;46.12
46412;BME280;32113;42.012;24.870;2023-02-03T05:04:57;99383.88;;;6.34;46.04
46412;BME280;32113;42.012;24.870;2023-02-03T05:07:22;99387.25;;;6.31;46.59
46412;BME280;32113;42.012;24.870;2023-02-03T05:09:48;99387.28;;;6.35;47.05
46412;BME280;32113;42.012;24.870;2023-02-03T05:12:13;99379.78;;;6.46;46.78
46412;BME280;32113;42.012;24.870;2023-02-03T05:14:38;99381.47;;;6.45;46.90
46412;BME280;32113;42.012;24.870;2023-02-03T05:17:03;99386.59;;;6.50;46.08
46412;BME280;32113;42.012;24.870;2023-02-03T05:19:29;99401.91;;;6.48;46.38
46412;BME280;32113;42.012;24.870;2023-02-03T05:21:54;99400.94;;;6.38;46.77
46412;BME280;32113;42.012;24.870;2023-02-03T05:24:19;99403.50;;;6.40;46.08
46412;BME280;32113;42.012;24.870;2023-02-03T05:26:44;99407.03;;;6.51;46.32
46412;BME280;32113;42.012;24.870;2023-02-03T05:29:10;99411.31;;;6.55;46.29
46412;BME280;32113;42.012;24.870;2023-02-03T05:31:36;99418.91;;;6.49;46.29
46412;BME280;32113;42.012;24.870;2023-02-03T05:34:01;99414.59;;;6.45;46.11
46412;BME280;32113;42.012;24.870;2023-02-03T05:36:26;99418.84;;;6.43;45.87
46412;BME280;32113;42.012;24.870;2023-02-03T05:38:51;99415.41;;;6.42;46.34
46412;BME280;32113;42.012;24.870;2023-02-03T05:41:17;99427.41;;;6.50;46.30
46412;BME280;32113;42.012;24.870;2023-02-03T05:44:01;99417.31;;;6.57;46.10
46412;BME280;32113;42.012;24.870;2023-02-03T05:46:26;99432.66;;;6.62;45.36
46412;BME280;32113;42.012;24.870;2023-02-03T05:48:51;99438.63;;;6.64;46.06
46412;BME280;32113;42.012;24.870;2023-02-03T05:51:17;99427.50;;;6.57;44.47
46412;BME280;32113;42.012;24.870;2023-02-03T05:53:42;99442.84;;;6.62;44.84
46412;BME280;32113;42.012;24.870;2023-02-03T05:56:07;99450.53;;;6.65;44.08
46412;BME280;32113;42.012;24.870;2023-02-03T05:58:32;99441.88;;;6.51;44.55
46412;BME280;32113;42.012;24.870;2023-02-03T06:00:58;99441.91;;;6.55;43.92
46412;BME280;32113;42.012;24.870;2023-02-03T06:03:23;99459.66;;;6.48;43.82
46412;BME280;32113;42.012;24.870;2023-02-03T06:05:48;99453.81;;;6.53;43.97
46412;BME280;32113;42.012;24.870;2023-02-03T06:08:14;99468.22;;;6.53;43.71
46412;BME280;32113;42.012;24.870;2023-02-03T06:10:39;99475.84;;;6.48;43.88
46412;BME280;32113;42.012;24.870;2023-02-03T06:13:11;99471.50;;;6.42;43.56
46412;BME280;32113;42.012;24.870;2023-02-03T06:15:37;99485.00;;;6.37;43.76
46412;BME280;32113;42.012;24.870;2023-02-03T06:18:03;99489.13;;;6.28;44.24
46412;BME280;32113;42.012;24.870;2023-02-03T06:20:28;99485.84;;;6.36;43.93
46412;BME280;32113;42.012;24.870;2023-02-03T06:22:54;99493.41;;;6.31;43.70
46412;BME280;32113;42.012;24.870;2023-02-03T06:25:19;99496.91;;;6.38;44.25
46412;BME280;32113;42.012;24.870;2023-02-03T06:27:44;99497.03;;;6.46;43.60
46412;BME280;32113;42.012;24.870;2023-02-03T06:30:10;99497.16;;;6.56;44.27
46412;BME280;32113;42.012;24.870;2023-02-03T06:32:35;99495.44;;;6.54;43.25
46412;BME280;32113;42.012;24.870;2023-02-03T06:35:00;99494.41;;;6.41;43.56
46412;BME280;32113;42.012;24.870;2023-02-03T06:37:26;99506.31;;;6.42;44.51
46412;BME280;32113;42.012;24.870;2023-02-03T06:39:51;99493.66;;;6.47;44.19
46412;BME280;32113;42.012;24.870;2023-02-03T06:42:16;99493.53;;;6.40;43.68
46412;BME280;32113;42.012;24.870;2023-02-03T06:44:42;99485.22;;;6.52;44.19
46412;BME280;32113;42.012;24.870;2023-02-03T06:47:08;99487.03;;;6.61;43.57
46412;BME280;32113;42.012;24.870;2023-02-03T06:49:33;99501.56;;;6.67;43.81
46412;BME280;32113;42.012;24.870;2023-02-03T06:51:58;99497.25;;;6.61;43.24
46412;BME280;32113;42.012;24.870;2023-02-03T06:54:24;99515.00;;;6.55;43.22
46412;BME280;32113;42.012;24.870;2023-02-03T06:56:49;99527.06;;;6.67;43.52
46412;BME280;32113;42.012;24.870;2023-02-03T06:59:14;99539.69;;;6.59;43.63
46412;BME280;32113;42.012;24.870;2023-02-03T07:01:40;99537.97;;;6.56;42.89
46412;BME280;32113;42.012;24.870;2023-02-03T07:04:05;99534.56;;;6.56;43.50
46412;BME280;32113;42.012;24.870;2023-02-03T07:06:30;99549.06;;;6.59;43.50
46412;BME280;32113;42.012;24.870;2023-02-03T07:08:58;99542.13;;;6.51;43.25
46412;BME280;32113;42.012;24.870;2023-02-03T07:11:24;99550.72;;;6.58;44.27
46412;BME280;32113;42.012;24.870;2023-02-03T07:13:49;99548.94;;;6.52;43.72
46412;BME280;32113;42.012;24.870;2023-02-03T07:16:15;99544.06;;;6.66;43.85
46412;BME280;32113;42.012;24.870;2023-02-03T07:18:40;99540.63;;;6.64;44.03
46412;BME280;32113;42.012;24.870;2023-02-03T07:21:06;99534.78;;;6.72;43.80
46412;BME280;32113;42.012;24.870;2023-02-03T07:23:31;99530.56;;;6.74;43.58
46412;BME280;32113;42.012;24.870;2023-02-03T07:26:00;99544.00;;;6.63;44.04
46412;BME280;32113;42.012;24.870;2023-02-03T07:28:25;99543.22;;;6.67;43.30
46412;BME280;32113;42.012;24.870;2023-02-03T07:30:50;99551.69;;;6.66;43.65
46412;BME280;32113;42.012;24.870;2023-02-03T07:33:16;99542.13;;;6.48;43.50
46412;BME280;32113;42.012;24.870;2023-02-03T07:35:41;99542.63;;;6.25;44.15
46412;BME280;32113;42.012;24.870;2023-02-03T07:38:06;99541.09;;;6.37;44.34
46412;BME280;32113;42.012;24.870;2023-02-03T07:40:32;99521.41;;;6.26;44.90
46412;BME280;32113;42.012;24.870;2023-02-03T07:42:57;99556.22;;;6.26;44.48
46412;BME280;32113;42.012;24.870;2023-02-03T07:45:24;99575.09;;;6.37;45.44
46412;BME280;32113;42.012;24.870;2023-02-03T07:47:49;99563.91;;;6.29;45.06
46412;BME280;32113;42.012;24.870;2023-02-03T07:50:14;99567.56;;;6.45;44.67
46412;BME280;32113;42.012;24.870;2023-02-03T07:52:40;99582.84;;;6.45;44.89
46412;BME280;32113;42.012;24.870;2023-02-03T07:55:05;99572.69;;;6.47;45.35
46412;BME280;32113;42.012;24.870;2023-02-03T07:57:31;99567.75;;;6.59;44.97
46412;BME280;32113;42.012;24.870;2023-02-03T07:59:56;99578.22;;;6.79;44.83
46412;BME280;32113;42.012;24.870;2023-02-03T08:02:21;99571.34;;;6.72;44.81
46412;BME280;32113;42.012;24.870;2023-02-03T08:04:47;99576.50;;;6.78;44.74
46412;BME280;32113;42.012;24.870;2023-02-03T08:07:12;99569.84;;;6.90;44.56
46412;BME280;32113;42.012;24.870;2023-02-03T08:09:37;99563.94;;;6.94;44.26
46412;BME280;32113;42.012;24.870;2023-02-03T08:12:02;99575.19;;;7.07;43.95
46412;BME280;32113;42.012;24.870;2023-02-03T08:14:28;99575.31;;;7.18;44.05
46412;BME280;32113;42.012;24.870;2023-02-03T08:16:55;99566.81;;;7.20;43.47
46412;BME280;32113;42.012;24.870;2023-02-03T08:19:20;99565.31;;;7.35;43.52
46412;BME280;32113;42.012;24.870;2023-02-03T08:21:45;99565.41;;;7.47;42.49
46412;BME280;32113;42.012;24.870;2023-02-03T08:24:10;99570.50;;;7.43;42.50
46412;BME280;32113;42.012;24.870;2023-02-03T08:26:36;99566.41;;;7.60;43.57
46412;BME280;32113;42.012;24.870;2023-02-03T08:29:01;99576.63;;;7.62;42.84
46412;BME280;32113;42.012;24.870;2023-02-03T08:31:27;99581.06;;;7.79;42.80
46412;BME280;32113;42.012;24.870;2023-02-03T08:33:53;99574.38;;;7.92;42.71
46412;BME280;32113;42.012;24.870;2023-02-03T08:36:18;99583.06;;;8.15;42.61
46412;BME280;32113;42.012;24.870;2023-02-03T08:38:43;99579.81;;;8.35;41.80
46412;BME280;32113;42.012;24.870;2023-02-03T08:41:09;99581.56;;;8.41;40.58
46412;BME280;32113;42.012;24.870;2023-02-03T08:43:35;99587.66;;;8.56;42.17
46412;BME280;32113;42.012;24.870;2023-02-03T08:46:01;99602.16;;;8.58;41.16
46412;BME280;32113;42.012;24.870;2023-02-03T08:48:26;99602.06;;;8.47;43.47
46412;BME280;32113;42.012;24.870;2023-02-03T08:50:52;99606.63;;;8.86;43.85
46412;BME280;32113;42.012;24.870;2023-02-03T08:53:17;99605.88;;;9.07;40.59
46412;BME280;32113;42.012;24.870;2023-02-03T08:55:42;99610.88;;;8.90;40.84
46412;BME280;32113;42.012;24.870;2023-02-03T08:58:08;99604.97;;;8.97;40.37
46412;BME280;32113;42.012;24.870;2023-02-03T09:00:33;99605.16;;;9.38;40.31
46412;BME280;32113;42.012;24.870;2023-02-03T09:02:58;99603.53;;;9.69;44.08
46412;BME280;32113;42.012;24.870;2023-02-03T09:05:23;99602.72;;;10.02;39.51
46412;BME280;32113;42.012;24.870;2023-02-03T09:07:49;99594.19;;;10.15;38.71
46412;BME280;32113;42.012;24.870;2023-02-03T09:10:14;99593.31;;;10.04;38.17
46412;BME280;32113;42.012;24.870;2023-02-03T09:12:39;99602.69;;;10.22;37.46
46412;BME280;32113;42.012;24.870;2023-02-03T09:15:05;99589.06;;;10.51;37.53
46412;BME280;32113;42.012;24.870;2023-02-03T09:17:30;99596.75;;;10.60;36.47
46412;BME280;32113;42.012;24.870;2023-02-03T09:19:55;99589.88;;;10.72;37.46
46412;BME280;32113;42.012;24.870;2023-02-03T09:22:21;99589.75;;;11.09;36.30
46412;BME280;32113;42.012;24.870;2023-02-03T09:24:46;99588.75;;;11.37;34.99
46412;BME280;32113;42.012;24.870;2023-02-03T09:27:14;99599.03;;;11.43;33.44
46412;BME280;32113;42.012;24.870;2023-02-03T09:29:39;99576.84;;;11.28;34.27
46412;BME280;32113;42.012;24.870;2023-02-03T09:32:05;99587.97;;;11.25;34.24
46412;BME280;32113;42.012;24.870;2023-02-03T09:34:32;99583.75;;;11.12;33.23
46412;BME280;32113;42.012;24.870;2023-02-03T09:36:58;99582.00;;;11.19;33.21
46412;BME280;32113;42.012;24.870;2023-02-03T09:39:23;99590.53;;;11.25;32.68
46412;BME280;32113;42.012;24.870;2023-02-03T09:47:17;99577.75;;;11.13;33.89
46412;BME280;32113;42.012;24.870;2023-02-03T09:49:47;99568.31;;;11.20;33.19
46412;BME280;32113;42.012;24.870;2023-02-03T09:57:19;99569.50;;;12.03;31.82
46412;BME280;32113;42.012;24.870;2023-02-03T09:59:45;99575.69;;;11.79;31.49
46412;BME280;32113;42.012;24.870;2023-02-03T10:05:10;99564.47;;;11.85;31.55
46412;BME280;32113;42.012;24.870;2023-02-03T10:07:38;99564.19;;;12.28;31.91
46412;BME280;32113;42.012;24.870;2023-02-03T10:17:58;99573.88;;;11.90;30.03
46412;BME280;32113;42.012;24.870;2023-02-03T10:20:27;99575.50;;;12.04;30.12
46412;BME280;32113;42.012;24.870;2023-02-03T10:23:00;99578.84;;;12.20;30.07
46412;BME280;32113;42.012;24.870;2023-02-03T10:27:53;99573.25;;;11.59;30.68
46412;BME280;32113;42.012;24.870;2023-02-03T10:30:23;99579.34;;;11.39;30.76
46412;BME280;32113;42.012;24.870;2023-02-03T10:33:08;99579.44;;;11.22;31.19
46412;BME280;32113;42.012;24.870;2023-02-03T10:35:41;99583.84;;;10.81;31.25
46412;BME280;32113;42.012;24.870;2023-02-03T10:38:07;99576.19;;;10.65;32.09
46412;BME280;32113;42.012;24.870;2023-02-03T10:40:39;99575.38;;;10.44;32.37
46412;BME280;32113;42.012;24.870;2023-02-03T10:43:04;99578.78;;;10.14;32.96
46412;BME280;32113;42.012;24.870;2023-02-03T10:45:48;99580.47;;;10.10;32.69
46412;BME280;32113;42.012;24.870;2023-02-03T10:48:14;99561.69;;;9.75;32.54
46412;BME280;32113;42.012;24.870;2023-02-03T10:50:43;99565.94;;;9.76;33.35
46412;BME280;32113;42.012;24.870;2023-02-03T10:55:42;99544.59;;;10.44;32.67
46412;BME280;32113;42.012;24.870;2023-02-03T10:58:13;99553.94;;;10.70;32.23
46412;BME280;32113;42.012;24.870;2023-02-03T11:00:40;99554.75;;;10.85;30.83
46412;BME280;32113;42.012;24.870;2023-02-03T11:03:07;99544.47;;;10.88;30.96
46412;BME280;32113;42.012;24.870;2023-02-03T11:05:32;99532.50;;;10.84;30.33
46412;BME280;32113;42.012;24.870;2023-02-03T11:07:58;99529.03;;;11.00;31.44
46412;BME280;32113;42.012;24.870;2023-02-03T11:10:28;99510.91;;;11.27;30.83
46412;BME280;32113;42.012;24.870;2023-02-03T11:15:42;99531.31;;;11.53;29.70
46412;BME280;32113;42.012;24.870;2023-02-03T11:18:24;99512.56;;;11.40;28.96
46412;BME280;32113;42.012;24.870;2023-02-03T11:20:49;99506.66;;;11.21;30.13
46412;BME280;32113;42.012;24.870;2023-02-03T11:23:16;99510.16;;;11.08;30.56
46412;BME280;32113;42.012;24.870;2023-02-03T11:25:42;99510.22;;;10.92;30.31
46412;BME280;32113;42.012;24.870;2023-02-03T11:28:09;99525.56;;;11.11;30.29
46412;BME280;32113;42.012;24.870;2023-02-03T11:30:35;99512.66;;;11.22;29.57
46412;BME280;32113;42.012;24.870;2023-02-03T11:33:02;99516.22;;;10.89;29.88
46412;BME280;32113;42.012;24.870;2023-02-03T11:35:40;99506.88;;;10.77;29.93
46412;BME280;32113;42.012;24.870;2023-02-03T11:38:33;99504.34;;;10.62;30.45
46412;BME280;32113;42.012;24.870;2023-02-03T11:41:01;99511.16;;;10.66;30.76
46412;BME280;32113;42.012;24.870;2023-02-03T11:43:26;99509.50;;;10.35;31.23
46412;BME280;32113;42.012;24.870;2023-02-03T11:45:53;99513.78;;;10.30;31.88
46412;BME280;32113;42.012;24.870;2023-02-03T11:51:11;99502.72;;;10.19;32.13
46412;BME280;32113;42.012;24.870;2023-02-03T11:54:17;99502.66;;;10.55;32.26
46412;BME280;32113;42.012;24.870;2023-02-03T12:27:45;99442.47;;;12.23;27.11
46412;BME280;32113;42.012;24.870;2023-02-03T12:32:41;99453.81;;;12.00;27.90
46412;BME280;32113;42.012;24.870;2023-02-03T12:35:17;99438.25;;;12.13;27.25
46412;BME280;32113;42.012;24.870;2023-02-03T12:37:49;99446.94;;;12.01;27.40
46412;BME280;32113;42.012;24.870;2023-02-03T12:40:26;99443.69;;;11.81;26.90
46412;BME280;32113;42.012;24.870;2023-02-03T12:42:54;99447.91;;;11.89;27.56
46412;BME280;32113;42.012;24.870;2023-02-03T12:45:30;99447.31;;;11.59;27.21
46412;BME280;32113;42.012;24.870;2023-02-03T12:48:02;99438.88;;;11.41;27.54
46412;BME280;32113;42.012;24.870;2023-02-03T12:50:31;99443.25;;;11.29;26.93
46412;BME280;32113;42.012;24.870;2023-02-03T12:53:00;99438.06;;;11.33;28.25
46412;BME280;32113;42.012;24.870;2023-02-03T12:55:36;99435.53;;;11.29;27.79
46412;BME280;32113;42.012;24.870;2023-02-03T12:58:14;99430.28;;;11.48;27.86
46412;BME280;32113;42.012;24.870;2023-02-03T13:00:46;99440.47;;;11.56;27.90
46412;BME280;32113;42.012;24.870;2023-02-03T13:05:44;99435.34;;;11.56;28.31
46412;BME280;32113;42.012;24.870;2023-02-03T13:08:17;99434.66;;;11.32;28.21
46412;BME280;32113;42.012;24.870;2023-02-03T13:10:47;99432.09;;;11.35;28.18
46412;BME280;32113;42.012;24.870;2023-02-03T13:13:15;99426.16;;;11.24;28.63
46412;BME280;32113;42.012;24.870;2023-02-03T13:15:43;99428.72;;;11.27;28.30
46412;BME280;32113;42.012;24.870;2023-02-03T13:20:53;99433.66;;;11.52;28.60
46412;BME280;32113;42.012;24.870;2023-02-03T13:23:19;99446.50;;;11.50;27.75
46412;BME280;32113;42.012;24.870;2023-02-03T13:30:50;99439.06;;;11.13;27.74
46412;BME280;32113;42.012;24.870;2023-02-03T13:33:25;99428.78;;;11.13;28.04
46412;BME280;32113;42.012;24.870;2023-02-03T13:38:43;99428.72;;;11.24;27.22
46412;BME280;32113;42.012;24.870;2023-02-03T13:41:10;99419.31;;;11.21;27.04
46412;BME280;32113;42.012;24.870;2023-02-03T13:43:48;99419.50;;;10.90;27.28
46412;BME280;32113;42.012;24.870;2023-02-03T13:46:19;99419.41;;;11.10;28.00
46412;BME280;32113;42.012;24.870;2023-02-03T13:48:45;99425.34;;;11.15;27.51
46412;BME280;32113;42.012;24.870;2023-02-03T13:53:40;99416.97;;;10.88;26.57
46412;BME280;32113;42.012;24.870;2023-02-03T13:56:08;99410.16;;;10.78;26.54
46412;BME280;32113;42.012;24.870;2023-02-03T13:58:40;99416.16;;;10.75;27.10
46412;BME280;32113;42.012;24.870;2023-02-03T14:05:59;99394.91;;;10.58;27.70
46412;BME280;32113;42.012;24.870;2023-02-03T14:13:37;99395.69;;;10.66;26.80
46412;BME280;32113;42.012;24.870;2023-02-03T14:16:13;99393.06;;;10.78;26.81
46412;BME280;32113;42.012;24.870;2023-02-03T14:18:46;99393.94;;;10.71;26.77
46412;BME280;32113;42.012;24.870;2023-02-03T14:21:13;99392.16;;;10.87;27.02
46412;BME280;32113;42.012;24.870;2023-02-03T14:23:47;99388.72;;;10.90;27.04
46412;BME280;32113;42.012;24.870;2023-02-03T14:26:15;99398.13;;;10.91;27.86
46412;BME280;32113;42.012;24.870;2023-02-03T14:28:42;99393.00;;;10.88;27.60
46412;BME280;32113;42.012;24.870;2023-02-03T14:31:10;99400.66;;;10.97;27.81
46412;BME280;32113;42.012;24.870;2023-02-03T14:57:55;99427.53;;;10.01;30.35
46412;BME280;32113;42.012;24.870;2023-02-03T15:05:50;99430.13;;;9.62;30.14
46412;BME280;32113;42.012;24.870;2023-02-03T15:08:29;99421.56;;;9.63;30.23
46412;BME280;32113;42.012;24.870;2023-02-03T15:10:54;99425.03;;;9.48;30.27
46412;BME280;32113;42.012;24.870;2023-02-03T15:13:27;99423.31;;;9.55;30.02
46412;BME280;32113;42.012;24.870;2023-02-03T15:15:54;99422.44;;;9.51;29.58
46412;BME280;32113;42.012;24.870;2023-02-03T15:18:21;99429.28;;;9.33;29.46
46412;BME280;32113;42.012;24.870;2023-02-03T15:20:50;99440.38;;;9.42;30.17
46412;BME280;32113;42.012;24.870;2023-02-03T15:23:20;99437.81;;;9.42;29.69
46412;BME280;32113;42.012;24.870;2023-02-03T15:25:51;99442.94;;;9.31;29.47